sensor_id;sensor_type;location;lat;lon;timestamp;temperature;humidity
64654;DHT22;51065;48.884;12.598;2023-02-10T00:02:22;-6.30;99.90
64654;DHT22;51065;48.884;12.598;2023-02-10T00:04:48;-6.40;99.90
64654;DHT22;51065;48.884;12.598;2023-02-10T00:07:14;-6.40;99.90
64654;DHT22;51065;48.884;12.598;2023-02-10T00:09:39;-6.40;99.90
64654;DHT22;51065;48.884;12.598;2023-02-10T00:12:05;-6.50;99.90
64654;DHT22;51065;48.884;12.598;2023-02-10T00:14:33;-6.60;99.90
64654;DHT22;51065;48.884;12.598;2023-02-10T00:16:59;-6.60;99.90
64654;DHT22;51065;48.884;12.598;2023-02-10T00:19:27;-6.60;99.90
64654;DHT22;51065;48.884;12.598;2023-02-10T00:21:53;-6.70;99.90
64654;DHT22;51065;48.884;12.598;2023-02-10T00:24:20;-6.70;99.90
64654;DHT22;51065;48.884;12.598;2023-02-10T00:26:46;-6.70;99.90
64654;DHT22;51065;48.884;12.598;2023-02-10T00:29:12;-6.70;99.90
64654;DHT22;51065;48.884;12.598;2023-02-10T00:31:37;-6.70;99.90
64654;DHT22;51065;48.884;12.598;2023-02-10T00:34:03;-6.60;99.90
64654;DHT22;51065;48.884;12.598;2023-02-10T00:36:29;-6.60;99.90
64654;DHT22;51065;48.884;12.598;2023-02-10T00:38:54;-6.60;99.90
64654;DHT22;51065;48.884;12.598;2023-02-10T00:41:21;-6.50;99.90
64654;DHT22;51065;48.884;12.598;2023-02-10T00:43:47;-6.50;99.90
64654;DHT22;51065;48.884;12.598;2023-02-10T00:46:16;-6.50;99.90
64654;DHT22;51065;48.884;12.598;2023-02-10T00:48:42;-6.60;99.90
64654;DHT22;51065;48.884;12.598;2023-02-10T00:51:09;-6.70;99.90
64654;DHT22;51065;48.884;12.598;2023-02-10T00:53:34;-6.80;99.90
64654;DHT22;51065;48.884;12.598;2023-02-10T00:56:00;-6.90;99.90
64654;DHT22;51065;48.884;12.598;2023-02-10T00:58:26;-7.00;99.90
64654;DHT22;51065;48.884;12.598;2023-02-10T01:00:53;-7.10;99.90
64654;DHT22;51065;48.884;12.598;2023-02-10T01:03:19;-7.10;99.90
64654;DHT22;51065;48.884;12.598;2023-02-10T01:05:45;-7.20;99.90
64654;DHT22;51065;48.884;12.598;2023-02-10T01:08:12;-7.20;99.90
64654;DHT22;51065;48.884;12.598;2023-02-10T01:10:37;-7.30;99.90
64654;DHT22;51065;48.884;12.598;2023-02-10T01:13:05;-7.30;99.90
64654;DHT22;51065;48.884;12.598;2023-02-10T01:15:32;-7.30;99.90
64654;DHT22;51065;48.884;12.598;2023-02-10T01:17:57;-7.20;99.90
64654;DHT22;51065;48.884;12.598;2023-02-10T01:20:23;-7.30;99.90
64654;DHT22;51065;48.884;12.598;2023-02-10T01:22:49;-7.30;99.90
64654;DHT22;51065;48.884;12.598;2023-02-10T01:25:15;-7.30;99.90
64654;DHT22;51065;48.884;12.598;2023-02-10T01:27:41;-7.30;99.90
64654;DHT22;51065;48.884;12.598;2023-02-10T01:30:07;-7.30;99.90
64654;DHT22;51065;48.884;12.598;2023-02-10T01:32:32;-7.40;99.90
64654;DHT22;51065;48.884;12.598;2023-02-10T01:34:58;-7.40;99.90
64654;DHT22;51065;48.884;12.598;2023-02-10T01:37:23;-7.40;99.90
64654;DHT22;51065;48.884;12.598;2023-02-10T01:39:49;-7.40;99.90
64654;DHT22;51065;48.884;12.598;2023-02-10T01:42:15;-7.40;99.90
64654;DHT22;51065;48.884;12.598;2023-02-10T01:47:07;-7.30;99.90
64654;DHT22;51065;48.884;12.598;2023-02-10T01:49:38;-7.30;99.90
64654;DHT22;51065;48.884;12.598;2023-02-10T01:52:12;-7.40;99.90
64654;DHT22;51065;48.884;12.598;2023-02-10T01:54:43;-7.30;99.90
64654;DHT22;51065;48.884;12.598;2023-02-10T01:57:10;-7.00;99.90
64654;DHT22;51065;48.884;12.598;2023-02-10T01:59:38;-6.90;99.90
64654;DHT22;51065;48.884;12.598;2023-02-10T02:02:04;-7.00;99.90
64654;DHT22;51065;48.884;12.598;2023-02-10T02:04:53;-7.00;99.90
64654;DHT22;51065;48.884;12.598;2023-02-10T02:07:21;-7.00;99.90
64654;DHT22;51065;48.884;12.598;2023-02-10T02:09:48;-6.80;99.90
64654;DHT22;51065;48.884;12.598;2023-02-10T02:18:12;-6.80;99.90
64654;DHT22;51065;48.884;12.598;2023-02-10T02:26:32;-7.00;99.90
64654;DHT22;51065;48.884;12.598;2023-02-10T02:29:30;-6.90;99.90
64654;DHT22;51065;48.884;12.598;2023-02-10T02:34:50;-6.70;99.90
64654;DHT22;51065;48.884;12.598;2023-02-10T02:37:29;-6.80;99.90
64654;DHT22;51065;48.884;12.598;2023-02-10T02:39:56;-6.80;99.90
64654;DHT22;51065;48.884;12.598;2023-02-10T02:42:26;-6.80;99.90
64654;DHT22;51065;48.884;12.598;2023-02-10T02:44:54;-6.90;99.90
64654;DHT22;51065;48.884;12.598;2023-02-10T03:00:54;-7.40;99.90
64654;DHT22;51065;48.884;12.598;2023-02-10T03:03:22;-7.30;99.90
64654;DHT22;51065;48.884;12.598;2023-02-10T03:05:48;-7.30;99.90
64654;DHT22;51065;48.884;12.598;2023-02-10T03:08:13;-7.30;99.90
64654;DHT22;51065;48.884;12.598;2023-02-10T03:10:39;-7.40;99.90
64654;DHT22;51065;48.884;12.598;2023-02-10T03:13:05;-7.60;99.90
64654;DHT22;51065;48.884;12.598;2023-02-10T03:15:30;-7.70;99.90
64654;DHT22;51065;48.884;12.598;2023-02-10T03:17:56;-7.60;99.90
64654;DHT22;51065;48.884;12.598;2023-02-10T03:20:22;-7.60;99.90
64654;DHT22;51065;48.884;12.598;2023-02-10T03:22:47;-7.70;99.90
64654;DHT22;51065;48.884;12.598;2023-02-10T03:25:13;-7.70;99.90
64654;DHT22;51065;48.884;12.598;2023-02-10T03:27:39;-7.70;99.90
64654;DHT22;51065;48.884;12.598;2023-02-10T03:30:05;-7.70;99.90
64654;DHT22;51065;48.884;12.598;2023-02-10T03:32:30;-7.80;99.90
64654;DHT22;51065;48.884;12.598;2023-02-10T03:34:56;-7.90;99.90
64654;DHT22;51065;48.884;12.598;2023-02-10T03:37:21;-7.80;99.90
64654;DHT22;51065;48.884;12.598;2023-02-10T03:39:47;-7.80;99.90
64654;DHT22;51065;48.884;12.598;2023-02-10T03:42:12;-7.80;99.90
64654;DHT22;51065;48.884;12.598;2023-02-10T03:44:38;-7.80;99.90
64654;DHT22;51065;48.884;12.598;2023-02-10T03:47:04;-7.80;99.90
64654;DHT22;51065;48.884;12.598;2023-02-10T03:49:29;-7.90;99.90
64654;DHT22;51065;48.884;12.598;2023-02-10T03:51:55;-7.80;99.90
64654;DHT22;51065;48.884;12.598;2023-02-10T03:54:20;-7.80;99.90
64654;DHT22;51065;48.884;12.598;2023-02-10T03:56:46;-7.60;99.90
64654;DHT22;51065;48.884;12.598;2023-02-10T03:59:12;-7.70;99.90
64654;DHT22;51065;48.884;12.598;2023-02-10T04:01:37;-7.70;99.90
64654;DHT22;51065;48.884;12.598;2023-02-10T04:04:03;-7.60;99.90
64654;DHT22;51065;48.884;12.598;2023-02-10T04:06:29;-7.70;99.90
64654;DHT22;51065;48.884;12.598;2023-02-10T04:08:54;-7.80;99.90
64654;DHT22;51065;48.884;12.598;2023-02-10T04:11:20;-7.90;99.90
64654;DHT22;51065;48.884;12.598;2023-02-10T04:13:45;-8.10;99.90
64654;DHT22;51065;48.884;12.598;2023-02-10T04:16:13;-8.10;99.90
64654;DHT22;51065;48.884;12.598;2023-02-10T04:18:40;-8.00;99.90
64654;DHT22;51065;48.884;12.598;2023-02-10T04:21:07;-8.10;99.90
64654;DHT22;51065;48.884;12.598;2023-02-10T04:23:33;-8.20;99.90
64654;DHT22;51065;48.884;12.598;2023-02-10T04:25:59;-8.40;99.90
64654;DHT22;51065;48.884;12.598;2023-02-10T04:28:25;-8.40;99.90
64654;DHT22;51065;48.884;12.598;2023-02-10T04:30:55;-8.40;99.90
64654;DHT22;51065;48.884;12.598;2023-02-10T04:33:21;-8.40;99.90
64654;DHT22;51065;48.884;12.598;2023-02-10T04:35:47;-8.40;99.90
64654;DHT22;51065;48.884;12.598;2023-02-10T04:38:13;-8.50;99.90
64654;DHT22;51065;48.884;12.598;2023-02-10T04:40:39;-8.60;99.90
64654;DHT22;51065;48.884;12.598;2023-02-10T04:43:05;-8.60;99.90
64654;DHT22;51065;48.884;12.598;2023-02-10T04:45:30;-8.70;99.90
64654;DHT22;51065;48.884;12.598;2023-02-10T04:47:56;-8.60;99.90
64654;DHT22;51065;48.884;12.598;2023-02-10T04:50:21;-8.60;99.90
64654;DHT22;51065;48.884;12.598;2023-02-10T04:52:47;-8.60;99.90
64654;DHT22;51065;48.884;12.598;2023-02-10T04:55:12;-8.70;99.90
64654;DHT22;51065;48.884;12.598;2023-02-10T04:57:38;-8.70;99.90
64654;DHT22;51065;48.884;12.598;2023-02-10T05:00:04;-8.80;99.90
64654;DHT22;51065;48.884;12.598;2023-02-10T05:02:30;-8.80;99.90
64654;DHT22;51065;48.884;12.598;2023-02-10T05:04:55;-8.70;99.90
64654;DHT22;51065;48.884;12.598;2023-02-10T05:07:21;-8.60;99.90
64654;DHT22;51065;48.884;12.598;2023-02-10T05:09:46;-8.70;99.90
64654;DHT22;51065;48.884;12.598;2023-02-10T05:12:12;-8.70;99.90
64654;DHT22;51065;48.884;12.598;2023-02-10T05:14:38;-8.70;99.90
64654;DHT22;51065;48.884;12.598;2023-02-10T05:17:03;-8.80;99.90
64654;DHT22;51065;48.884;12.598;2023-02-10T05:19:29;-8.80;99.90
64654;DHT22;51065;48.884;12.598;2023-02-10T05:21:54;-8.80;99.90
64654;DHT22;51065;48.884;12.598;2023-02-10T05:24:20;-8.80;99.90
64654;DHT22;51065;48.884;12.598;2023-02-10T05:26:45;-8.80;99.90
64654;DHT22;51065;48.884;12.598;2023-02-10T05:29:11;-8.80;99.90
64654;DHT22;51065;48.884;12.598;2023-02-10T05:31:36;-8.80;99.90
64654;DHT22;51065;48.884;12.598;2023-02-10T05:34:02;-8.70;99.90
64654;DHT22;51065;48.884;12.598;2023-02-10T05:36:27;-8.70;99.90
64654;DHT22;51065;48.884;12.598;2023-02-10T05:38:53;-8.70;99.90
64654;DHT22;51065;48.884;12.598;2023-02-10T05:41:37;-8.80;99.90
64654;DHT22;51065;48.884;12.598;2023-02-10T05:44:03;-8.90;99.90
64654;DHT22;51065;48.884;12.598;2023-02-10T05:46:29;-8.90;99.90
64654;DHT22;51065;48.884;12.598;2023-02-10T05:48:54;-8.80;99.90
64654;DHT22;51065;48.884;12.598;2023-02-10T05:51:20;-8.80;99.90
64654;DHT22;51065;48.884;12.598;2023-02-10T05:53:45;-8.80;99.90
64654;DHT22;51065;48.884;12.598;2023-02-10T05:56:11;-8.70;99.90
64654;DHT22;51065;48.884;12.598;2023-02-10T05:58:36;-8.70;99.90
64654;DHT22;51065;48.884;12.598;2023-02-10T06:01:06;-8.70;99.90
64654;DHT22;51065;48.884;12.598;2023-02-10T06:03:31;-8.70;99.90
64654;DHT22;51065;48.884;12.598;2023-02-10T06:05:57;-8.70;99.90
64654;DHT22;51065;48.884;12.598;2023-02-10T06:08:23;-8.70;99.90
64654;DHT22;51065;48.884;12.598;2023-02-10T06:10:48;-8.70;99.90
64654;DHT22;51065;48.884;12.598;2023-02-10T06:13:14;-8.70;99.90
64654;DHT22;51065;48.884;12.598;2023-02-10T06:15:39;-8.60;99.90
64654;DHT22;51065;48.884;12.598;2023-02-10T06:18:05;-8.60;99.90
64654;DHT22;51065;48.884;12.598;2023-02-10T06:20:30;-8.60;99.90
64654;DHT22;51065;48.884;12.598;2023-02-10T06:22:56;-8.60;99.90
64654;DHT22;51065;48.884;12.598;2023-02-10T06:25:21;-8.50;99.90
64654;DHT22;51065;48.884;12.598;2023-02-10T06:27:47;-8.40;99.90
64654;DHT22;51065;48.884;12.598;2023-02-10T06:30:13;-8.40;99.90
64654;DHT22;51065;48.884;12.598;2023-02-10T06:32:38;-8.40;99.90
64654;DHT22;51065;48.884;12.598;2023-02-10T06:35:04;-8.50;99.90
64654;DHT22;51065;48.884;12.598;2023-02-10T06:37:30;-8.30;99.90
64654;DHT22;51065;48.884;12.598;2023-02-10T06:39:55;-8.30;99.90
64654;DHT22;51065;48.884;12.598;2023-02-10T06:42:21;-8.30;99.90
64654;DHT22;51065;48.884;12.598;2023-02-10T06:44:46;-8.30;99.90
64654;DHT22;51065;48.884;12.598;2023-02-10T06:47:12;-8.30;99.90
64654;DHT22;51065;48.884;12.598;2023-02-10T06:49:37;-8.20;99.90
64654;DHT22;51065;48.884;12.598;2023-02-10T06:52:03;-8.10;99.90
64654;DHT22;51065;48.884;12.598;2023-02-10T06:54:29;-7.90;99.90
64654;DHT22;51065;48.884;12.598;2023-02-10T06:56:54;-7.90;99.90
64654;DHT22;51065;48.884;12.598;2023-02-10T06:59:20;-7.70;99.90
64654;DHT22;51065;48.884;12.598;2023-02-10T07:01:46;-7.60;99.90
64654;DHT22;51065;48.884;12.598;2023-02-10T07:04:12;-7.50;99.90
64654;DHT22;51065;48.884;12.598;2023-02-10T07:06:39;-7.40;99.90
64654;DHT22;51065;48.884;12.598;2023-02-10T07:09:05;-7.40;99.90
64654;DHT22;51065;48.884;12.598;2023-02-10T07:11:32;-7.30;99.90
64654;DHT22;51065;48.884;12.598;2023-02-10T07:13:58;-7.30;99.90
64654;DHT22;51065;48.884;12.598;2023-02-10T07:16:23;-7.20;99.90
64654;DHT22;51065;48.884;12.598;2023-02-10T07:18:49;-7.10;99.90
64654;DHT22;51065;48.884;12.598;2023-02-10T07:21:14;-6.90;99.90
64654;DHT22;51065;48.884;12.598;2023-02-10T07:23:40;-6.70;99.90
64654;DHT22;51065;48.884;12.598;2023-02-10T07:26:06;-6.40;99.90
64654;DHT22;51065;48.884;12.598;2023-02-10T07:28:32;-5.90;99.90
64654;DHT22;51065;48.884;12.598;2023-02-10T07:30:58;-5.50;99.90
64654;DHT22;51065;48.884;12.598;2023-02-10T07:33:23;-5.10;99.90
64654;DHT22;51065;48.884;12.598;2023-02-10T07:35:49;-4.80;99.90
64654;DHT22;51065;48.884;12.598;2023-02-10T07:38:15;-4.60;99.90
64654;DHT22;51065;48.884;12.598;2023-02-10T07:40:40;-4.30;99.90
64654;DHT22;51065;48.884;12.598;2023-02-10T07:43:06;-3.90;99.90
64654;DHT22;51065;48.884;12.598;2023-02-10T07:45:31;-3.40;99.90
64654;DHT22;51065;48.884;12.598;2023-02-10T07:47:58;-3.20;99.90
64654;DHT22;51065;48.884;12.598;2023-02-10T07:50:25;-3.10;99.90
64654;DHT22;51065;48.884;12.598;2023-02-10T07:52:50;-2.90;99.90
64654;DHT22;51065;48.884;12.598;2023-02-10T07:55:16;-2.60;99.90
64654;DHT22;51065;48.884;12.598;2023-02-10T07:57:42;-2.20;99.90
64654;DHT22;51065;48.884;12.598;2023-02-10T08:00:08;-2.00;99.90
64654;DHT22;51065;48.884;12.598;2023-02-10T08:02:34;-1.60;99.90
64654;DHT22;51065;48.884;12.598;2023-02-10T08:04:59;-1.30;99.90
64654;DHT22;51065;48.884;12.598;2023-02-10T08:07:25;-1.20;99.90
64654;DHT22;51065;48.884;12.598;2023-02-10T08:09:51;-1.30;99.90
64654;DHT22;51065;48.884;12.598;2023-02-10T08:12:16;-1.20;99.90
64654;DHT22;51065;48.884;12.598;2023-02-10T08:14:42;-0.80;99.90
64654;DHT22;51065;48.884;12.598;2023-02-10T08:17:07;-0.70;99.90
64654;DHT22;51065;48.884;12.598;2023-02-10T08:19:33;-0.60;99.90
64654;DHT22;51065;48.884;12.598;2023-02-10T08:22:02;-0.50;99.90
64654;DHT22;51065;48.884;12.598;2023-02-10T08:24:28;-0.40;99.90
64654;DHT22;51065;48.884;12.598;2023-02-10T08:26:54;-0.40;99.90
64654;DHT22;51065;48.884;12.598;2023-02-10T08:29:20;-0.40;99.90
64654;DHT22;51065;48.884;12.598;2023-02-10T08:31:49;-0.30;99.90
64654;DHT22;51065;48.884;12.598;2023-02-10T08:34:16;-0.40;99.90
64654;DHT22;51065;48.884;12.598;2023-02-10T08:36:42;0.10;99.90
64654;DHT22;51065;48.884;12.598;2023-02-10T08:39:08;0.40;99.90
64654;DHT22;51065;48.884;12.598;2023-02-10T08:41:34;0.70;99.90
64654;DHT22;51065;48.884;12.598;2023-02-10T08:43:59;0.70;99.90
64654;DHT22;51065;48.884;12.598;2023-02-10T08:46:25;1.30;99.90
64654;DHT22;51065;48.884;12.598;2023-02-10T08:48:51;1.20;99.90
64654;DHT22;51065;48.884;12.598;2023-02-10T08:51:17;1.40;99.90
64654;DHT22;51065;48.884;12.598;2023-02-10T08:53:43;1.40;99.90
64654;DHT22;51065;48.884;12.598;2023-02-10T08:56:16;1.50;99.90
64654;DHT22;51065;48.884;12.598;2023-02-10T08:58:42;1.80;99.90
64654;DHT22;51065;48.884;12.598;2023-02-10T09:01:09;1.80;99.90
64654;DHT22;51065;48.884;12.598;2023-02-10T09:03:36;2.20;99.90
64654;DHT22;51065;48.884;12.598;2023-02-10T09:06:01;2.20;99.90
64654;DHT22;51065;48.884;12.598;2023-02-10T09:08:27;2.50;99.90
64654;DHT22;51065;48.884;12.598;2023-02-10T09:10:53;2.60;99.90
64654;DHT22;51065;48.884;12.598;2023-02-10T09:13:18;3.10;99.90
64654;DHT22;51065;48.884;12.598;2023-02-10T09:15:44;3.30;99.90
64654;DHT22;51065;48.884;12.598;2023-02-10T09:18:10;3.30;98.60
64654;DHT22;51065;48.884;12.598;2023-02-10T09:20:36;3.40;99.90
64654;DHT22;51065;48.884;12.598;2023-02-10T09:23:02;2.90;90.40
64654;DHT22;51065;48.884;12.598;2023-02-10T09:25:28;2.70;95.00
64654;DHT22;51065;48.884;12.598;2023-02-10T09:27:54;2.90;98.60
64654;DHT22;51065;48.884;12.598;2023-02-10T09:30:25;3.30;99.90
64654;DHT22;51065;48.884;12.598;2023-02-10T09:32:51;3.40;95.40
64654;DHT22;51065;48.884;12.598;2023-02-10T09:35:17;3.30;92.70
64654;DHT22;51065;48.884;12.598;2023-02-10T09:37:43;3.80;97.20
64654;DHT22;51065;48.884;12.598;2023-02-10T09:40:27;3.70;89.70
64654;DHT22;51065;48.884;12.598;2023-02-10T09:43:06;3.10;96.60
64654;DHT22;51065;48.884;12.598;2023-02-10T09:45:37;3.40;90.90
64654;DHT22;51065;48.884;12.598;2023-02-10T09:48:20;3.10;86.60
64654;DHT22;51065;48.884;12.598;2023-02-10T09:50:59;3.40;97.00
64654;DHT22;51065;48.884;12.598;2023-02-10T09:53:30;4.10;80.50
64654;DHT22;51065;48.884;12.598;2023-02-10T09:55:58;3.20;84.10
64654;DHT22;51065;48.884;12.598;2023-02-10T10:01:29;3.80;92.30
64654;DHT22;51065;48.884;12.598;2023-02-10T10:04:02;4.20;84.40
64654;DHT22;51065;48.884;12.598;2023-02-10T10:06:36;3.80;83.80
64654;DHT22;51065;48.884;12.598;2023-02-10T10:14:39;3.50;89.90
64654;DHT22;51065;48.884;12.598;2023-02-10T10:22:48;4.40;79.50
64654;DHT22;51065;48.884;12.598;2023-02-10T10:36:23;4.50;73.90
64654;DHT22;51065;48.884;12.598;2023-02-10T10:38:53;5.20;69.50
64654;DHT22;51065;48.884;12.598;2023-02-10T10:41:22;5.70;67.30
64654;DHT22;51065;48.884;12.598;2023-02-10T10:43:53;5.50;65.30
64654;DHT22;51065;48.884;12.598;2023-02-10T10:46:36;5.60;65.20
64654;DHT22;51065;48.884;12.598;2023-02-10T10:49:03;5.80;64.50
64654;DHT22;51065;48.884;12.598;2023-02-10T10:51:30;6.10;64.40
64654;DHT22;51065;48.884;12.598;2023-02-10T10:53:57;6.20;62.20
64654;DHT22;51065;48.884;12.598;2023-02-10T10:56:29;5.40;64.30
64654;DHT22;51065;48.884;12.598;2023-02-10T10:58:59;4.40;74.20
64654;DHT22;51065;48.884;12.598;2023-02-10T11:01:37;3.00;89.10
64654;DHT22;51065;48.884;12.598;2023-02-10T11:04:10;2.10;95.00
64654;DHT22;51065;48.884;12.598;2023-02-10T11:06:37;1.40;99.20
64654;DHT22;51065;48.884;12.598;2023-02-10T11:09:06;1.30;99.90
64654;DHT22;51065;48.884;12.598;2023-02-10T11:11:37;1.10;99.90
64654;DHT22;51065;48.884;12.598;2023-02-10T11:14:16;1.60;99.90
64654;DHT22;51065;48.884;12.598;2023-02-10T11:16:48;2.20;99.90
64654;DHT22;51065;48.884;12.598;2023-02-10T11:19:23;4.20;93.40
64654;DHT22;51065;48.884;12.598;2023-02-10T11:21:49;5.20;81.40
64654;DHT22;51065;48.884;12.598;2023-02-10T11:29:31;5.50;66.30
64654;DHT22;51065;48.884;12.598;2023-02-10T11:31:57;6.10;66.10
64654;DHT22;51065;48.884;12.598;2023-02-10T11:34:25;6.90;65.10
64654;DHT22;51065;48.884;12.598;2023-02-10T11:36:52;6.90;60.70
64654;DHT22;51065;48.884;12.598;2023-02-10T11:39:31;7.60;60.90
64654;DHT22;51065;48.884;12.598;2023-02-10T11:44:51;8.60;56.00
64654;DHT22;51065;48.884;12.598;2023-02-10T11:47:16;8.70;54.20
64654;DHT22;51065;48.884;12.598;2023-02-10T11:49:45;8.70;53.50
64654;DHT22;51065;48.884;12.598;2023-02-10T11:52:13;8.70;53.60
64654;DHT22;51065;48.884;12.598;2023-02-10T11:54:41;9.50;53.00
64654;DHT22;51065;48.884;12.598;2023-02-10T12:00:34;9.30;51.00
64654;DHT22;51065;48.884;12.598;2023-02-10T12:06:32;8.40;55.60
64654;DHT22;51065;48.884;12.598;2023-02-10T12:11:52;9.00;53.40
64654;DHT22;51065;48.884;12.598;2023-02-10T12:17:24;8.60;54.70
64654;DHT22;51065;48.884;12.598;2023-02-10T12:25:48;8.80;50.90
64654;DHT22;51065;48.884;12.598;2023-02-10T12:36:44;10.20;51.80
64654;DHT22;51065;48.884;12.598;2023-02-10T12:39:36;9.70;50.40
64654;DHT22;51065;48.884;12.598;2023-02-10T12:47:14;9.30;50.70
64654;DHT22;51065;48.884;12.598;2023-02-10T12:52:30;10.20;51.40
64654;DHT22;51065;48.884;12.598;2023-02-10T12:55:16;10.60;50.10
64654;DHT22;51065;48.884;12.598;2023-02-10T12:57:50;9.90;52.10
64654;DHT22;51065;48.884;12.598;2023-02-10T13:00:34;10.10;50.50
64654;DHT22;51065;48.884;12.598;2023-02-10T13:03:27;8.90;52.30
64654;DHT22;51065;48.884;12.598;2023-02-10T13:05:59;7.90;55.70
64654;DHT22;51065;48.884;12.598;2023-02-10T13:08:32;8.00;56.60
64654;DHT22;51065;48.884;12.598;2023-02-10T13:11:10;8.10;55.20
64654;DHT22;51065;48.884;12.598;2023-02-10T13:13:38;7.80;56.10
64654;DHT22;51065;48.884;12.598;2023-02-10T13:16:17;7.90;56.00
64654;DHT22;51065;48.884;12.598;2023-02-10T13:19:24;7.00;57.50
64654;DHT22;51065;48.884;12.598;2023-02-10T13:21:54;6.50;58.80
64654;DHT22;51065;48.884;12.598;2023-02-10T13:24:24;6.30;60.60
64654;DHT22;51065;48.884;12.598;2023-02-10T13:33:10;6.60;61.20
64654;DHT22;51065;48.884;12.598;2023-02-10T13:35:41;6.80;60.10
64654;DHT22;51065;48.884;12.598;2023-02-10T13:38:13;6.50;61.20
64654;DHT22;51065;48.884;12.598;2023-02-10T13:40:49;6.30;59.50
64654;DHT22;51065;48.884;12.598;2023-02-10T13:43:28;6.00;62.80
64654;DHT22;51065;48.884;12.598;2023-02-10T13:45:55;6.00;64.60
64654;DHT22;51065;48.884;12.598;2023-02-10T13:48:24;6.30;63.10
64654;DHT22;51065;48.884;12.598;2023-02-10T13:50:57;6.30;61.40
64654;DHT22;51065;48.884;12.598;2023-02-10T13:56:28;6.20;62.80
64654;DHT22;51065;48.884;12.598;2023-02-10T13:59:24;5.70;65.80
64654;DHT22;51065;48.884;12.598;2023-02-10T14:04:42;5.90;65.60
64654;DHT22;51065;48.884;12.598;2023-02-10T14:12:58;5.20;69.00
64654;DHT22;51065;48.884;12.598;2023-02-10T14:15:30;4.30;76.90
64654;DHT22;51065;48.884;12.598;2023-02-10T14:18:03;4.00;86.10
64654;DHT22;51065;48.884;12.598;2023-02-10T14:20:37;3.70;90.60
64654;DHT22;51065;48.884;12.598;2023-02-10T14:23:05;3.50;93.70
64654;DHT22;51065;48.884;12.598;2023-02-10T14:25:39;3.20;95.10
64654;DHT22;51065;48.884;12.598;2023-02-10T14:28:19;3.00;96.10
64654;DHT22;51065;48.884;12.598;2023-02-10T14:30:46;2.90;97.20
64654;DHT22;51065;48.884;12.598;2023-02-10T14:33:30;2.80;98.40
64654;DHT22;51065;48.884;12.598;2023-02-10T14:35:58;2.70;98.70
64654;DHT22;51065;48.884;12.598;2023-02-10T14:38:27;2.60;98.70
64654;DHT22;51065;48.884;12.598;2023-02-10T14:40:54;2.60;99.00
64654;DHT22;51065;48.884;12.598;2023-02-10T14:43:28;2.50;99.50
64654;DHT22;51065;48.884;12.598;2023-02-10T14:45:57;2.40;99.90
64654;DHT22;51065;48.884;12.598;2023-02-10T14:48:24;2.30;99.90
64654;DHT22;51065;48.884;12.598;2023-02-10T14:51:07;2.20;99.90
64654;DHT22;51065;48.884;12.598;2023-02-10T14:53:35;2.20;99.90
64654;DHT22;51065;48.884;12.598;2023-02-10T14:56:03;2.10;99.90
64654;DHT22;51065;48.884;12.598;2023-02-10T14:58:28;2.10;99.90
64654;DHT22;51065;48.884;12.598;2023-02-10T15:03:29;2.00;99.90
64654;DHT22;51065;48.884;12.598;2023-02-10T15:05:56;1.90;99.90
64654;DHT22;51065;48.884;12.598;2023-02-10T15:08:36;1.90;99.90
64654;DHT22;51065;48.884;12.598;2023-02-10T15:11:08;1.90;99.90
64654;DHT22;51065;48.884;12.598;2023-02-10T15:13:48;2.00;99.90
64654;DHT22;51065;48.884;12.598;2023-02-10T15:16:15;1.90;99.90
64654;DHT22;51065;48.884;12.598;2023-02-10T15:18:45;1.80;99.90
64654;DHT22;51065;48.884;12.598;2023-02-10T15:21:41;1.80;99.90
64654;DHT22;51065;48.884;12.598;2023-02-10T15:24:32;1.70;99.90
64654;DHT22;51065;48.884;12.598;2023-02-10T15:27:15;1.70;99.90
64654;DHT22;51065;48.884;12.598;2023-02-10T15:29:42;1.70;99.90
64654;DHT22;51065;48.884;12.598;2023-02-10T15:32:20;1.60;99.90
64654;DHT22;51065;48.884;12.598;2023-02-10T15:34:46;1.60;99.90
64654;DHT22;51065;48.884;12.598;2023-02-10T15:37:21;1.60;99.90
64654;DHT22;51065;48.884;12.598;2023-02-10T15:39:58;1.60;99.90
64654;DHT22;51065;48.884;12.598;2023-02-10T15:42:30;1.50;99.90
64654;DHT22;51065;48.884;12.598;2023-02-10T15:45:14;1.40;99.90
64654;DHT22;51065;48.884;12.598;2023-02-10T15:47:47;1.30;99.90
64654;DHT22;51065;48.884;12.598;2023-02-10T15:50:14;1.30;99.90
64654;DHT22;51065;48.884;12.598;2023-02-10T15:52:45;1.10;99.90
64654;DHT22;51065;48.884;12.598;2023-02-10T15:55:24;0.90;99.90
64654;DHT22;51065;48.884;12.598;2023-02-10T15:57:50;0.90;99.90
64654;DHT22;51065;48.884;12.598;2023-02-10T16:00:36;0.90;99.90
64654;DHT22;51065;48.884;12.598;2023-02-10T16:03:02;0.60;99.90
64654;DHT22;51065;48.884;12.598;2023-02-10T16:05:29;0.40;99.90
64654;DHT22;51065;48.884;12.598;2023-02-10T16:08:06;0.20;99.90
64654;DHT22;51065;48.884;12.598;2023-02-10T16:10:32;0.10;99.90
64654;DHT22;51065;48.884;12.598;2023-02-10T16:12:58;0.10;99.90
64654;DHT22;51065;48.884;12.598;2023-02-10T16:15:25;0.00;99.90
64654;DHT22;51065;48.884;12.598;2023-02-10T16:17:54;-0.10;99.90
64654;DHT22;51065;48.884;12.598;2023-02-10T16:20:26;-0.20;99.90
64654;DHT22;51065;48.884;12.598;2023-02-10T16:22:52;-0.10;99.90
64654;DHT22;51065;48.884;12.598;2023-02-10T16:25:20;-0.20;99.90
64654;DHT22;51065;48.884;12.598;2023-02-10T16:27:46;-0.30;99.90
64654;DHT22;51065;48.884;12.598;2023-02-10T16:30:16;-0.50;99.90
64654;DHT22;51065;48.884;12.598;2023-02-10T16:32:42;-0.60;99.90
64654;DHT22;51065;48.884;12.598;2023-02-10T16:35:07;-0.70;99.90
64654;DHT22;51065;48.884;12.598;2023-02-10T16:37:33;-0.90;99.90
64654;DHT22;51065;48.884;12.598;2023-02-10T16:39:59;-1.00;99.90
64654;DHT22;51065;48.884;12.598;2023-02-10T16:42:24;-1.20;99.90
64654;DHT22;51065;48.884;12.598;2023-02-10T16:44:50;-1.40;99.90
64654;DHT22;51065;48.884;12.598;2023-02-10T16:47:18;-1.50;99.90
64654;DHT22;51065;48.884;12.598;2023-02-10T16:49:44;-1.60;99.90
64654;DHT22;51065;48.884;12.598;2023-02-10T16:52:10;-1.70;99.90
64654;DHT22;51065;48.884;12.598;2023-02-10T16:54:35;-1.70;99.90
64654;DHT22;51065;48.884;12.598;2023-02-10T16:57:01;-1.80;99.90
64654;DHT22;51065;48.884;12.598;2023-02-10T16:59:26;-1.80;99.90
64654;DHT22;51065;48.884;12.598;2023-02-10T17:01:53;-1.80;99.90
64654;DHT22;51065;48.884;12.598;2023-02-10T17:04:18;-1.80;99.90
64654;DHT22;51065;48.884;12.598;2023-02-10T17:06:49;-1.80;99.90
64654;DHT22;51065;48.884;12.598;2023-02-10T17:09:17;-1.90;99.90
64654;DHT22;51065;48.884;12.598;2023-02-10T17:11:43;-1.90;99.90
64654;DHT22;51065;48.884;12.598;2023-02-10T17:14:09;-2.00;99.90
64654;DHT22;51065;48.884;12.598;2023-02-10T17:16:36;-2.10;99.90
64654;DHT22;51065;48.884;12.598;2023-02-10T17:19:04;-2.20;99.90
64654;DHT22;51065;48.884;12.598;2023-02-10T17:21:31;-2.20;99.90
64654;DHT22;51065;48.884;12.598;2023-02-10T17:23:56;-2.30;99.90
64654;DHT22;51065;48.884;12.598;2023-02-10T17:26:22;-2.30;99.90
64654;DHT22;51065;48.884;12.598;2023-02-10T17:28:47;-2.40;99.90
64654;DHT22;51065;48.884;12.598;2023-02-10T17:31:18;-2.40;99.90